Time;durP1;ratioP1;P1;durP2;ratioP2;P2;SDS_P1;SDS_P2;PMS_P1;PMS_P2;Temp;Humidity;BMP_temperature;BMP_pressure;BME280_temperature;BME280_humidity;BME280_pressure;Samples;Min_cycle;Max_cycle;Signal;HPM_P1;HPM_P2
2024/01/29 00:02:22;;;;;;;5.60;5.10;;;6.50;1.00;;;;;;5100786;28;20195;-87
2024/01/29 00:04:47;;;;;;;5.63;5.20;;;6.50;1.00;;;;;;5082659;28;20177;-88
2024/01/29 00:07:13;;;;;;;8.87;6.00;;;6.40;1.00;;;;;;5081949;28;20223;-89
2024/01/29 00:09:42;;;;;;;5.80;5.20;;;6.60;1.00;;;;;;5082240;28;20709;-88
2024/01/29 00:12:07;;;;;;;7.33;5.27;;;6.40;1.00;;;;;;5082083;28;20180;-88
2024/01/29 00:14:33;;;;;;;9.13;5.20;;;6.50;1.00;;;;;;5070857;28;20178;-88
2024/01/29 00:17:00;;;;;;;7.43;5.73;;;6.50;1.00;;;;;;5061454;28;20261;-87
2024/01/29 00:19:26;;;;;;;7.13;5.33;;;6.40;1.00;;;;;;5061664;28;20174;-87
2024/01/29 00:21:51;;;;;;;5.33;4.90;;;6.40;1.00;;;;;;5061426;28;20177;-89
2024/01/29 00:24:17;;;;;;;6.30;4.90;;;6.40;1.00;;;;;;5078814;28;20171;-87
2024/01/29 00:26:42;;;;;;;8.23;5.07;;;6.30;1.00;;;;;;5062327;28;20201;-88
2024/01/29 00:29:08;;;;;;;7.63;5.50;;;6.30;1.00;;;;;;5080848;28;20169;-88
2024/01/29 00:31:34;;;;;;;5.80;5.30;;;6.30;1.00;;;;;;5080849;28;20669;-86
2024/01/29 00:33:59;;;;;;;7.60;6.07;;;6.30;1.00;;;;;;5081428;28;20174;-87
2024/01/29 00:36:25;;;;;;;6.73;5.40;;;6.30;1.00;;;;;;5076657;28;20198;-87
2024/01/29 00:38:50;;;;;;;7.10;5.90;;;6.40;1.00;;;;;;5061849;28;20170;-88
2024/01/29 00:41:16;;;;;;;5.67;5.17;;;6.30;1.00;;;;;;5061582;28;20202;-88
2024/01/29 00:43:42;;;;;;;8.30;5.50;;;6.30;1.00;;;;;;5070687;28;20273;-88
2024/01/29 00:46:08;;;;;;;5.83;5.17;;;6.20;1.00;;;;;;5099659;28;20193;-89
2024/01/29 00:48:34;;;;;;;5.53;5.03;;;6.30;1.00;;;;;;5081837;28;20673;-88
2024/01/29 00:51:01;;;;;;;6.93;5.47;;;6.30;1.00;;;;;;5081375;28;20259;-89
2024/01/29 00:53:27;;;;;;;6.10;4.83;;;6.20;1.00;;;;;;5081731;28;20705;-88
2024/01/29 00:55:53;;;;;;;7.27;5.83;;;6.20;1.00;;;;;;5087716;28;21016;-87
2024/01/29 00:58:20;;;;;;;7.27;5.57;;;6.20;1.00;;;;;;5084562;28;20185;-87
2024/01/29 01:00:47;;;;;;;7.80;5.33;;;6.20;1.00;;;;;;5062714;28;20595;-87
2024/01/29 01:03:13;;;;;;;6.60;5.90;;;6.20;1.00;;;;;;5062449;28;20261;-87
2024/01/29 01:05:40;;;;;;;7.00;6.13;;;6.20;1.00;;;;;;5061862;28;20213;-89
2024/01/29 01:08:06;;;;;;;6.10;5.50;;;6.20;1.00;;;;;;5079639;28;20605;-88
2024/01/29 01:10:32;;;;;;;5.33;4.90;;;6.30;1.00;;;;;;5062049;28;20182;-87
2024/01/29 01:12:58;;;;;;;6.10;5.40;;;6.20;1.00;;;;;;5068665;28;20193;-89
2024/01/29 01:15:23;;;;;;;7.27;4.63;;;6.30;1.00;;;;;;5082412;28;20272;-87
2024/01/29 01:17:52;;;;;;;6.07;5.47;;;6.20;1.00;;;;;;5100305;28;20696;-88
2024/01/29 01:20:18;;;;;;;6.13;5.20;;;6.40;1.00;;;;;;5082597;28;20327;-88
2024/01/29 01:22:43;;;;;;;8.17;5.50;;;6.30;1.00;;;;;;5082171;28;20197;-87
2024/01/29 01:25:09;;;;;;;6.10;5.50;;;6.30;1.00;;;;;;5082074;28;20182;-88
2024/01/29 01:27:35;;;;;;;7.70;6.30;;;6.20;1.00;;;;;;5071854;28;20311;-87
2024/01/29 01:30:01;;;;;;;5.60;5.10;;;6.30;1.00;;;;;;5080173;28;20186;-87
2024/01/29 01:32:26;;;;;;;6.43;5.70;;;6.30;1.00;;;;;;5062422;28;20185;-87
2024/01/29 01:34:53;;;;;;;7.40;5.50;;;6.30;1.00;;;;;;5062301;28;20174;-87
2024/01/29 01:37:19;;;;;;;7.70;5.73;;;6.30;1.00;;;;;;5061323;28;20270;-87
2024/01/29 01:39:45;;;;;;;7.53;5.50;;;6.20;1.00;;;;;;5071455;28;20232;-87
2024/01/29 01:42:10;;;;;;;8.37;5.53;;;6.20;1.00;;;;;;5101240;28;20644;-88
2024/01/29 01:44:36;;;;;;;7.40;5.07;;;6.20;1.00;;;;;;5067131;28;20258;-87
2024/01/29 01:47:02;;;;;;;6.53;5.33;;;6.20;1.00;;;;;;5083426;28;20254;-88
2024/01/29 01:49:29;;;;;;;6.37;5.03;;;6.10;1.00;;;;;;5075058;28;20239;-87
2024/01/29 01:51:55;;;;;;;6.07;5.50;;;6.20;1.00;;;;;;5065022;28;20174;-86
2024/01/29 01:54:21;;;;;;;6.90;5.90;;;6.10;1.00;;;;;;5065405;28;20211;-86
2024/01/29 01:56:48;;;;;;;8.63;5.73;;;6.10;1.00;;;;;;5064559;28;20198;-87
2024/01/29 01:59:14;;;;;;;6.37;5.77;;;6.20;1.00;;;;;;5083092;28;20174;-87
2024/01/29 02:01:41;;;;;;;5.47;4.97;;;6.10;1.00;;;;;;5065479;28;20174;-88
2024/01/29 02:04:07;;;;;;;7.37;5.37;;;6.10;1.00;;;;;;5073857;28;20696;-87
2024/01/29 02:06:32;;;;;;;6.23;5.73;;;6.10;1.00;;;;;;5085926;28;20231;-87
2024/01/29 02:09:00;;;;;;;5.97;5.50;;;6.00;1.00;;;;;;5085876;28;20567;-87
2024/01/29 02:11:25;;;;;;;6.03;5.53;;;6.10;1.00;;;;;;5071882;28;20181;-87
2024/01/29 02:13:51;;;;;;;6.30;5.70;;;6.00;1.00;;;;;;5088551;28;20178;-87
2024/01/29 02:16:17;;;;;;;5.70;5.20;;;6.00;1.00;;;;;;5073607;28;20201;-87
2024/01/29 02:18:43;;;;;;;6.83;5.57;;;6.00;1.00;;;;;;5090466;28;20177;-87
2024/01/29 02:21:09;;;;;;;5.87;5.37;;;5.90;1.00;;;;;;5088782;28;20212;-88
2024/01/29 02:23:34;;;;;;;12.03;6.50;;;6.00;1.00;;;;;;5089499;28;20185;-87
2024/01/29 02:26:00;;;;;;;6.20;5.60;;;5.80;1.00;;;;;;5089189;28;20193;-87
2024/01/29 02:28:27;;;;;;;7.03;5.07;;;5.90;1.00;;;;;;5091425;28;20173;-86
2024/01/29 02:30:53;;;;;;;5.77;5.27;;;5.90;1.00;;;;;;5080616;28;20208;-88
2024/01/29 02:33:19;;;;;;;5.47;5.03;;;5.90;1.00;;;;;;5072429;28;20230;-86
2024/01/29 02:35:48;;;;;;;6.13;5.57;;;5.80;1.00;;;;;;5071443;28;20181;-86
2024/01/29 02:38:14;;;;;;;8.20;5.00;;;5.90;1.00;;;;;;5072263;28;20628;-87
2024/01/29 02:40:39;;;;;;;8.97;5.30;;;5.80;1.00;;;;;;5079011;28;20205;-86
2024/01/29 02:43:05;;;;;;;6.27;5.70;;;5.80;1.00;;;;;;5080087;28;20178;-85
2024/01/29 02:45:31;;;;;;;6.00;5.50;;;5.80;1.00;;;;;;5079978;28;20209;-86
2024/01/29 02:47:57;;;;;;;6.23;5.60;;;5.80;1.00;;;;;;5079474;28;20225;-86
2024/01/29 02:50:25;;;;;;;6.90;6.13;;;5.80;1.00;;;;;;5079927;28;20192;-87
2024/01/29 02:52:52;;;;;;;8.10;6.20;;;5.80;1.00;;;;;;5096521;28;20293;-87
2024/01/29 02:55:18;;;;;;;6.33;5.73;;;5.90;1.00;;;;;;5078490;28;20254;-87
2024/01/29 02:57:43;;;;;;;6.40;5.90;;;5.90;1.00;;;;;;5078689;28;20205;-88
2024/01/29 03:00:10;;;;;;;6.27;5.67;;;5.80;1.00;;;;;;5097357;28;20212;-87
2024/01/29 03:02:36;;;;;;;6.10;5.60;;;5.70;1.00;;;;;;5079332;28;20177;-86
2024/01/29 03:05:02;;;;;;;5.83;5.33;;;5.70;1.00;;;;;;5078363;28;20181;-87
2024/01/29 03:07:28;;;;;;;6.63;5.97;;;5.60;1.00;;;;;;5096362;28;20205;-87
2024/01/29 03:09:53;;;;;;;6.47;5.70;;;5.60;1.00;;;;;;5078139;28;20238;-88
2024/01/29 03:12:19;;;;;;;6.77;5.60;;;5.60;1.00;;;;;;5078259;28;20181;-87
2024/01/29 03:14:45;;;;;;;5.77;5.37;;;5.60;1.00;;;;;;5078336;28;20170;-87
2024/01/29 03:17:10;;;;;;;6.47;5.80;;;5.50;1.00;;;;;;5096673;28;20632;-87
2024/01/29 03:19:36;;;;;;;6.63;5.93;;;5.40;1.00;;;;;;5060820;28;20231;-88
2024/01/29 03:22:02;;;;;;;7.10;5.70;;;5.40;1.00;;;;;;5057782;28;20176;-87
2024/01/29 03:24:27;;;;;;;6.47;5.53;;;5.40;1.00;;;;;;5058330;28;20674;-87
2024/01/29 03:26:53;;;;;;;8.87;5.53;;;5.40;1.00;;;;;;5057819;28;20639;-87
2024/01/29 03:29:18;;;;;;;6.83;5.50;;;5.40;1.00;;;;;;5058302;28;20182;-88
2024/01/29 03:31:44;;;;;;;6.00;5.47;;;5.30;1.00;;;;;;5066000;28;20235;-86
2024/01/29 03:34:10;;;;;;;6.93;6.20;;;5.30;1.00;;;;;;5078141;28;20199;-87
2024/01/29 03:36:35;;;;;;;6.57;6.03;;;5.20;1.00;;;;;;5078293;28;20288;-87
2024/01/29 03:39:01;;;;;;;6.10;5.50;;;5.30;1.00;;;;;;5089304;28;20292;-87
2024/01/29 03:41:26;;;;;;;6.47;5.83;;;5.10;1.00;;;;;;5057800;28;20213;-87
2024/01/29 03:43:52;;;;;;;7.07;5.70;;;5.20;1.00;;;;;;5076712;28;20171;-87
2024/01/29 03:46:18;;;;;;;6.07;5.53;;;5.30;1.00;;;;;;5058048;28;20549;-88
2024/01/29 03:48:43;;;;;;;6.30;5.67;;;5.10;1.00;;;;;;5083868;28;20166;-86
2024/01/29 03:51:09;;;;;;;6.90;6.30;;;5.10;1.00;;;;;;5079332;28;20169;-87
2024/01/29 03:53:35;;;;;;;6.73;6.07;;;5.30;1.00;;;;;;5072656;28;20181;-88
2024/01/29 03:56:00;;;;;;;6.87;6.27;;;5.10;1.00;;;;;;5078890;28;20273;-88
2024/01/29 03:58:26;;;;;;;6.20;5.60;;;5.20;1.00;;;;;;5079295;28;20193;-89
2024/01/29 04:00:52;;;;;;;7.77;7.07;;;5.30;1.00;;;;;;5063941;28;20206;-87
2024/01/29 04:03:17;;;;;;;6.43;5.70;;;5.20;1.00;;;;;;5061568;28;20205;-87
2024/01/29 04:05:46;;;;;;;7.83;5.93;;;5.00;1.00;;;;;;5061978;28;20174;-87
2024/01/29 04:08:13;;;;;;;6.40;5.80;;;5.00;1.00;;;;;;5061785;28;20205;-87
2024/01/29 04:10:38;;;;;;;6.37;5.77;;;5.30;1.00;;;;;;5061272;28;20238;-87
2024/01/29 04:13:04;;;;;;;6.03;5.63;;;5.10;1.00;;;;;;5062210;28;20213;-87
2024/01/29 04:15:30;;;;;;;6.27;5.77;;;5.00;1.00;;;;;;5077711;28;20180;-87
2024/01/29 04:17:56;;;;;;;6.50;5.93;;;5.00;1.00;;;;;;5081925;28;20271;-87
2024/01/29 04:20:21;;;;;;;7.33;6.07;;;5.00;1.00;;;;;;5081619;28;20259;-88
2024/01/29 04:22:47;;;;;;;7.33;6.47;;;4.90;1.00;;;;;;5081719;28;20166;-87
2024/01/29 04:25:13;;;;;;;8.33;6.40;;;5.10;1.00;;;;;;5061994;28;20182;-88
2024/01/29 04:27:39;;;;;;;7.43;6.10;;;4.90;1.00;;;;;;5086373;28;20208;-87
2024/01/29 04:30:05;;;;;;;7.10;6.17;;;4.90;1.00;;;;;;5065061;28;20181;-88
2024/01/29 04:32:33;;;;;;;6.43;5.83;;;4.80;1.00;;;;;;5064876;28;20510;-87
2024/01/29 04:34:58;;;;;;;6.80;6.10;;;5.00;1.00;;;;;;5081275;28;20237;-87
2024/01/29 04:37:24;;;;;;;6.43;5.83;;;5.00;1.00;;;;;;5081376;28;20224;-87
2024/01/29 04:39:50;;;;;;;6.83;6.13;;;5.10;1.00;;;;;;5080278;28;20197;-87
2024/01/29 04:42:16;;;;;;;7.50;6.10;;;4.90;1.00;;;;;;5079324;28;20169;-87
2024/01/29 04:44:42;;;;;;;6.33;5.73;;;5.00;1.00;;;;;;5080711;28;20174;-87
2024/01/29 04:47:07;;;;;;;7.23;6.17;;;4.90;1.00;;;;;;5099136;28;20197;-87
2024/01/29 04:49:33;;;;;;;6.60;6.07;;;4.80;1.00;;;;;;5081443;28;20177;-88
2024/01/29 04:51:58;;;;;;;6.93;6.33;;;4.80;1.00;;;;;;5081003;28;20182;-87
2024/01/29 04:54:24;;;;;;;6.90;6.20;;;4.80;1.00;;;;;;5083545;28;20196;-87
2024/01/29 04:56:50;;;;;;;7.73;6.87;;;4.90;1.00;;;;;;5068367;28;20240;-86
2024/01/29 04:59:15;;;;;;;6.20;5.70;;;5.00;1.00;;;;;;5067225;28;20277;-87
2024/01/29 05:01:42;;;;;;;7.00;6.30;;;4.90;1.00;;;;;;5061884;28;20319;-88
2024/01/29 05:04:08;;;;;;;6.63;6.13;;;4.60;1.00;;;;;;5062154;28;20174;-87
2024/01/29 05:06:35;;;;;;;7.87;6.60;;;4.80;1.00;;;;;;5062925;28;20197;-88
2024/01/29 05:09:02;;;;;;;6.80;6.17;;;4.80;1.00;;;;;;5062578;28;20251;-87
2024/01/29 05:11:27;;;;;;;7.23;6.63;;;4.60;1.00;;;;;;5063507;28;20416;-87
2024/01/29 05:13:53;;;;;;;6.60;6.00;;;4.80;1.00;;;;;;5099773;28;20186;-88
2024/01/29 05:16:19;;;;;;;6.60;6.00;;;4.70;1.00;;;;;;5080402;28;20197;-87
2024/01/29 05:18:47;;;;;;;7.77;6.80;;;4.80;1.00;;;;;;5081552;28;20174;-87
2024/01/29 05:21:13;;;;;;;6.40;6.00;;;4.60;1.00;;;;;;5081354;28;20209;-87
2024/01/29 05:23:39;;;;;;;6.30;5.80;;;4.90;1.00;;;;;;5080504;28;20162;-87
2024/01/29 05:26:04;;;;;;;8.00;7.20;;;4.60;1.00;;;;;;5079771;28;20204;-88
2024/01/29 05:28:30;;;;;;;8.70;7.30;;;4.80;1.00;;;;;;5097727;28;20204;-87
2024/01/29 05:30:56;;;;;;;7.87;6.70;;;4.70;1.00;;;;;;5097442;28;20170;-87
2024/01/29 05:33:22;;;;;;;7.97;7.17;;;4.70;1.00;;;;;;5079390;28;20180;-88
2024/01/29 05:35:48;;;;;;;8.57;7.70;;;4.70;1.00;;;;;;5078953;28;20177;-87
2024/01/29 05:38:13;;;;;;;7.67;7.07;;;4.30;1.00;;;;;;5071533;28;20189;-87
2024/01/29 05:40:39;;;;;;;8.03;6.80;;;4.50;1.00;;;;;;5059581;28;20201;-87
2024/01/29 05:43:05;;;;;;;9.80;6.77;;;4.40;1.00;;;;;;5059530;28;20197;-87
2024/01/29 05:45:30;;;;;;;8.30;7.57;;;4.60;1.00;;;;;;5059310;28;20166;-88
2024/01/29 05:47:56;;;;;;;9.13;7.40;;;4.30;1.00;;;;;;5059083;28;20604;-87
2024/01/29 05:50:21;;;;;;;8.23;7.40;;;4.20;1.00;;;;;;5077299;28;20193;-87
2024/01/29 05:52:47;;;;;;;8.23;7.53;;;4.50;1.00;;;;;;5060316;28;20189;-88
2024/01/29 05:55:13;;;;;;;9.57;7.07;;;4.50;1.00;;;;;;5061457;28;20174;-87
2024/01/29 05:57:38;;;;;;;7.63;6.93;;;4.10;1.00;;;;;;5059540;28;20194;-87
2024/01/29 06:00:12;;;;;;;8.03;7.33;;;4.30;1.00;;;;;;5059541;28;20221;-87
2024/01/29 06:02:45;;;;;;;7.90;7.17;;;4.00;1.00;;;;;;5059485;28;20175;-87
2024/01/29 06:05:11;;;;;;;8.30;7.37;;;4.40;1.00;;;;;;5059351;28;20170;-87
2024/01/29 06:07:38;;;;;;;9.63;7.83;;;4.10;1.00;;;;;;5058495;28;20194;-87
2024/01/29 06:10:04;;;;;;;9.33;7.63;;;4.30;1.00;;;;;;5058470;28;20277;-87
2024/01/29 06:12:29;;;;;;;8.27;7.47;;;4.10;1.00;;;;;;5076742;28;20174;-87
2024/01/29 06:14:55;;;;;;;8.80;7.93;;;4.20;1.00;;;;;;5077032;28;20180;-87
2024/01/29 06:17:21;;;;;;;8.13;7.43;;;4.20;1.00;;;;;;5089232;28;20229;-88
2024/01/29 06:19:46;;;;;;;8.50;7.60;;;4.10;1.00;;;;;;5077610;28;20554;-88
2024/01/29 06:22:12;;;;;;;8.70;7.10;;;4.00;1.00;;;;;;5078925;28;20634;-88
2024/01/29 06:24:37;;;;;;;8.27;7.57;;;4.30;1.00;;;;;;5078878;28;20176;-87
2024/01/29 06:27:03;;;;;;;8.43;7.63;;;4.00;1.00;;;;;;5075271;28;20247;-88
2024/01/29 06:29:29;;;;;;;8.87;7.30;;;4.00;1.00;;;;;;5060013;28;20223;-88
2024/01/29 06:31:54;;;;;;;8.83;7.80;;;4.00;1.00;;;;;;5059057;28;20190;-90
2024/01/29 06:34:23;;;;;;;8.17;7.50;;;4.20;1.00;;;;;;5076968;28;20249;-88
2024/01/29 06:36:51;;;;;;;9.93;7.00;;;3.90;1.00;;;;;;5076991;28;20597;-87
2024/01/29 06:39:16;;;;;;;8.43;7.67;;;4.30;1.00;;;;;;5058888;28;20228;-88
2024/01/29 06:41:42;;;;;;;8.90;7.90;;;4.10;1.00;;;;;;5059712;28;20197;-88
2024/01/29 06:44:08;;;;;;;8.60;7.90;;;4.10;1.00;;;;;;5059677;28;20582;-89
2024/01/29 06:46:33;;;;;;;8.37;7.50;;;4.00;1.00;;;;;;5062106;28;20190;-89
2024/01/29 06:49:00;;;;;;;10.10;7.73;;;4.60;1.00;;;;;;5058531;28;20261;-89
2024/01/29 06:51:27;;;;;;;8.43;7.70;;;3.70;1.00;;;;;;5059842;28;20562;-89
2024/01/29 06:53:53;;;;;;;11.17;8.67;;;4.40;1.00;;;;;;5058064;28;20260;-88
2024/01/29 06:56:18;;;;;;;8.77;7.93;;;3.80;1.00;;;;;;5059390;28;20334;-88
2024/01/29 06:58:45;;;;;;;14.53;8.50;;;4.20;1.00;;;;;;5061979;28;20231;-89
2024/01/29 07:01:11;;;;;;;8.47;7.63;;;4.30;1.00;;;;;;5038410;28;20750;-88
2024/01/29 07:03:36;;;;;;;8.63;7.63;;;4.00;1.00;;;;;;5073037;28;20307;-88
2024/01/29 07:06:02;;;;;;;7.97;7.27;;;3.80;1.00;;;;;;5054677;28;20679;-89
2024/01/29 07:08:27;;;;;;;8.53;7.70;;;3.70;1.00;;;;;;5054986;28;20667;-88
2024/01/29 07:10:54;;;;;;;10.67;7.33;;;4.00;1.00;;;;;;5054626;28;20217;-88
2024/01/29 07:13:20;;;;;;;9.73;7.63;;;3.80;1.00;;;;;;5054791;28;20185;-88
2024/01/29 07:15:46;;;;;;;10.43;8.20;;;4.00;1.00;;;;;;5054261;28;20216;-88
2024/01/29 07:18:11;;;;;;;8.37;7.67;;;3.80;1.00;;;;;;5054586;28;20248;-88
2024/01/29 07:20:42;;;;;;;8.30;7.60;;;3.70;1.00;;;;;;5054297;28;20206;-88
2024/01/29 07:23:08;;;;;;;10.53;7.53;;;3.80;1.00;;;;;;5054766;28;20182;-88
2024/01/29 07:25:35;;;;;;;9.10;8.03;;;3.90;1.00;;;;;;5055536;28;20182;-88
2024/01/29 07:28:04;;;;;;;8.97;7.47;;;3.90;1.00;;;;;;5054389;28;20186;-88
2024/01/29 07:30:31;;;;;;;9.87;7.70;;;3.80;1.00;;;;;;5054851;28;20182;-89
2024/01/29 07:32:57;;;;;;;10.03;7.33;;;4.00;1.00;;;;;;5055474;28;20437;-88
2024/01/29 07:35:23;;;;;;;8.90;7.60;;;3.80;1.00;;;;;;5057833;28;20226;-88
2024/01/29 07:37:49;;;;;;;8.20;7.50;;;3.80;1.00;;;;;;5059518;28;20551;-88
2024/01/29 07:40:15;;;;;;;8.30;7.60;;;4.20;1.00;;;;;;5095228;28;20212;-89
2024/01/29 07:42:40;;;;;;;8.20;7.50;;;4.40;1.00;;;;;;5079360;28;20281;-88
2024/01/29 07:45:06;;;;;;;8.50;7.70;;;4.30;1.00;;;;;;5079723;28;20524;-89
2024/01/29 07:47:32;;;;;;;9.30;8.23;;;4.10;1.00;;;;;;5078660;28;20198;-89
2024/01/29 07:49:58;;;;;;;8.83;7.97;;;4.00;1.00;;;;;;5079152;28;20706;-88
2024/01/29 07:52:23;;;;;;;8.77;7.77;;;4.40;1.00;;;;;;5070592;28;20182;-89
2024/01/29 07:54:49;;;;;;;8.93;7.77;;;4.40;1.00;;;;;;5058519;28;20651;-89
2024/01/29 07:57:18;;;;;;;9.27;8.10;;;4.10;1.00;;;;;;5059481;28;20194;-90
2024/01/29 07:59:45;;;;;;;9.63;7.80;;;4.10;1.00;;;;;;5062649;28;20548;-89
2024/01/29 08:02:11;;;;;;;8.77;7.90;;;4.20;1.00;;;;;;5059851;28;20616;-91
2024/01/29 08:04:37;;;;;;;9.00;8.10;;;4.40;1.00;;;;;;5058830;28;20201;-89
2024/01/29 08:07:03;;;;;;;10.93;8.47;;;4.80;1.00;;;;;;5060679;28;20242;-93
2024/01/29 08:09:29;;;;;;;9.57;7.63;;;4.50;1.00;;;;;;5041957;28;20197;-89
2024/01/29 08:11:55;;;;;;;8.97;8.03;;;4.50;1.00;;;;;;5059847;28;20392;-89
2024/01/29 08:14:21;;;;;;;8.67;7.77;;;4.70;1.00;;;;;;5074526;28;20272;-91
2024/01/29 08:16:47;;;;;;;13.43;8.20;;;4.50;1.00;;;;;;5079025;28;20300;-89
2024/01/29 08:19:13;;;;;;;9.33;8.40;;;4.80;1.00;;;;;;5079279;28;20238;-89
2024/01/29 08:21:38;;;;;;;10.83;8.00;;;4.90;1.00;;;;;;5060442;28;20210;-89
2024/01/29 08:24:05;;;;;;;8.80;7.90;;;5.30;1.00;;;;;;5058254;28;20174;-88
2024/01/29 08:26:31;;;;;;;8.67;7.73;;;5.40;27.40;;;;;;5057490;28;20198;-87
2024/01/29 08:28:57;;;;;;;10.30;8.07;;;5.90;1.00;;;;;;5057384;28;20293;-88
2024/01/29 08:31:24;;;;;;;8.20;7.40;;;6.40;1.00;;;;;;5056884;28;20551;-88
2024/01/29 08:33:49;;;;;;;7.23;6.53;;;6.90;1.00;;;;;;5056513;28;20273;-87
2024/01/29 08:36:15;;;;;;;8.60;7.20;;;7.40;1.00;;;;;;5057054;28;20636;-87
2024/01/29 08:38:42;;;;;;;9.47;6.80;;;7.70;1.00;;;;;;5057167;28;20185;-87
2024/01/29 08:41:08;;;;;;;9.90;6.40;;;8.20;1.00;;;;;;5057178;28;20296;-87
2024/01/29 08:43:34;;;;;;;7.20;6.50;;;8.60;1.00;;;;;;5075358;28;20556;-87
2024/01/29 08:46:00;;;;;;;7.33;6.30;;;8.80;1.00;;;;;;5076403;28;20200;-87
2024/01/29 08:48:26;;;;;;;7.27;6.37;;;9.10;1.00;;;;;;5076512;28;20180;-87
2024/01/29 08:50:51;;;;;;;6.33;5.73;;;9.40;1.00;;;;;;5094994;28;20173;-86
2024/01/29 08:53:17;;;;;;;7.70;6.37;;;9.60;1.00;;;;;;5088206;28;20168;-85
2024/01/29 08:55:43;;;;;;;7.33;6.63;;;9.70;1.00;;;;;;5096199;28;20209;-87
2024/01/29 08:58:09;;;;;;;8.73;6.17;;;9.70;1.00;;;;;;5077619;28;20184;-87
2024/01/29 09:00:34;;;;;;;7.00;6.30;;;9.60;1.00;;;;;;5077294;28;20216;-87
2024/01/29 09:03:00;;;;;;;8.10;6.43;;;9.50;1.00;;;;;;5084368;28;20261;-88
2024/01/29 09:05:25;;;;;;;6.83;6.13;;;9.60;1.00;;;;;;5056645;28;20231;-88
2024/01/29 09:07:51;;;;;;;6.87;6.17;;;9.70;1.00;;;;;;5056455;28;20197;-88
2024/01/29 09:10:18;;;;;;;6.47;5.87;;;9.70;1.00;;;;;;5074374;28;20343;-87
2024/01/29 09:12:45;;;;;;;6.83;6.13;;;9.70;1.00;;;;;;5056796;28;20175;-88
2024/01/29 09:15:11;;;;;;;7.10;6.40;;;9.60;1.00;;;;;;5056522;28;20181;-88
2024/01/29 09:17:37;;;;;;;8.90;6.70;;;9.60;1.00;;;;;;5073861;28;20206;-88
2024/01/29 09:20:10;;;;;;;8.07;7.27;;;9.70;1.00;;;;;;5076736;28;20580;-89
2024/01/29 09:22:35;;;;;;;7.57;6.30;;;9.90;1.00;;;;;;5090396;28;20189;-87
2024/01/29 09:25:01;;;;;;;8.97;6.17;;;10.10;1.00;;;;;;5101046;28;20185;-88
2024/01/29 09:27:29;;;;;;;7.23;6.53;;;10.10;1.00;;;;;;5101067;28;20184;-88
2024/01/29 09:29:56;;;;;;;7.57;6.67;;;10.10;1.00;;;;;;5101042;28;20185;-89
2024/01/29 09:32:23;;;;;;;7.67;5.97;;;10.20;1.00;;;;;;5083219;28;20178;-88
2024/01/29 09:34:48;;;;;;;6.60;5.90;;;10.30;1.00;;;;;;5080815;28;20174;-87
2024/01/29 09:37:17;;;;;;;7.17;6.07;;;10.70;1.00;;;;;;5081019;28;20246;-88
2024/01/29 09:39:42;;;;;;;7.00;6.33;;;11.20;1.00;;;;;;5073284;28;20679;-90
2024/01/29 09:42:16;;;;;;;6.87;5.57;;;11.80;1.00;;;;;;5056646;28;20171;-90
2024/01/29 09:44:41;;;;;;;9.00;5.53;;;12.30;1.00;;;;;;5064975;28;20239;-90
2024/01/29 09:47:07;;;;;;;6.73;5.37;;;12.80;1.00;;;;;;5076963;28;20686;-90
2024/01/29 09:49:40;;;;;;;7.13;5.83;;;13.10;1.00;;;;;;5079917;28;20654;-90
2024/01/29 09:52:10;;;;;;;6.37;5.57;;;13.30;1.00;;;;;;5081806;28;20242;-90
2024/01/29 09:54:37;;;;;;;6.43;5.67;;;13.30;1.00;;;;;;5065967;28;20186;-90
2024/01/29 09:57:04;;;;;;;6.87;6.10;;;13.30;1.00;;;;;;5078774;28;20679;-90
2024/01/29 09:59:29;;;;;;;6.20;5.60;;;13.10;1.00;;;;;;5066034;28;20197;-88
2024/01/29 10:01:56;;;;;;;7.50;5.40;;;13.10;1.00;;;;;;5056024;28;20182;-90
2024/01/29 10:04:22;;;;;;;10.13;6.37;;;13.00;1.00;;;;;;5055966;28;20174;-89
2024/01/29 10:06:48;;;;;;;8.40;6.53;;;12.70;1.00;;;;;;5055810;28;20220;-90
2024/01/29 10:09:15;;;;;;;10.10;6.07;;;12.70;1.00;;;;;;5075879;28;20218;-91
2024/01/29 10:11:42;;;;;;;8.97;6.40;;;12.90;1.00;;;;;;5076824;28;20583;-90
2024/01/29 10:14:08;;;;;;;6.53;5.77;;;13.10;1.00;;;;;;5075896;28;20543;-91
2024/01/29 10:16:34;;;;;;;7.87;6.00;;;13.40;1.00;;;;;;5077250;28;20705;-91
2024/01/29 10:19:02;;;;;;;8.20;5.77;;;13.30;1.00;;;;;;5078644;28;20166;-90
2024/01/29 10:21:39;;;;;;;7.10;6.40;;;13.30;1.00;;;;;;5079456;28;20173;-90
2024/01/29 10:24:11;;;;;;;6.57;5.97;;;13.40;1.00;;;;;;5036794;28;20177;-90
2024/01/29 10:26:36;;;;;;;7.53;6.73;;;13.30;1.00;;;;;;5040876;28;20586;-90
2024/01/29 10:29:06;;;;;;;7.23;6.53;;;13.20;1.00;;;;;;5059419;28;20173;-90
2024/01/29 10:31:33;;;;;;;6.90;6.13;;;13.10;1.00;;;;;;5076280;28;20757;-90
2024/01/29 10:34:01;;;;;;;7.97;6.13;;;12.90;1.00;;;;;;5076347;28;20173;-90
2024/01/29 10:36:27;;;;;;;7.83;6.03;;;12.70;1.00;;;;;;5075536;28;20223;-89
2024/01/29 10:38:53;;;;;;;8.00;6.23;;;12.60;1.00;;;;;;5076446;28;20669;-90
2024/01/29 10:41:21;;;;;;;9.13;6.53;;;12.60;1.00;;;;;;5075503;28;20199;-90
2024/01/29 10:43:57;;;;;;;6.63;5.93;;;12.70;1.00;;;;;;5076854;28;20194;-90
2024/01/29 10:46:23;;;;;;;6.93;6.10;;;12.80;1.00;;;;;;5076886;28;20288;-90
2024/01/29 10:48:51;;;;;;;6.97;5.90;;;12.90;1.00;;;;;;5076581;28;20227;-90
2024/01/29 10:51:17;;;;;;;8.10;6.00;;;13.00;1.00;;;;;;5076088;28;20205;-90
2024/01/29 10:53:48;;;;;;;6.83;5.93;;;12.90;1.00;;;;;;5077770;28;20189;-90
2024/01/29 10:56:16;;;;;;;6.17;5.40;;;13.30;1.00;;;;;;5060283;28;20226;-90
2024/01/29 10:58:43;;;;;;;7.63;6.00;;;13.30;1.00;;;;;;5074044;28;20185;-91
2024/01/29 11:01:10;;;;;;;7.30;6.03;;;13.20;1.00;;;;;;5068911;28;20170;-88
2024/01/29 11:03:37;;;;;;;6.67;5.97;;;13.50;1.00;;;;;;5079396;28;20162;-87
2024/01/29 11:06:11;;;;;;;8.23;6.23;;;13.50;1.00;;;;;;5063359;28;20225;-90
2024/01/29 11:08:40;;;;;;;8.67;6.40;;;13.70;1.00;;;;;;5068473;28;20283;-89
2024/01/29 11:11:07;;;;;;;8.23;5.73;;;13.90;1.00;;;;;;5063231;28;20288;-89
2024/01/29 11:13:33;;;;;;;8.83;6.03;;;14.20;1.00;;;;;;5061890;28;20174;-90
2024/01/29 11:15:59;;;;;;;7.70;5.63;;;14.30;1.00;;;;;;5060036;28;20194;-90
2024/01/29 11:18:25;;;;;;;9.33;6.17;;;14.50;1.00;;;;;;5083433;28;20666;-91
2024/01/29 11:20:51;;;;;;;7.67;5.57;;;14.80;1.00;;;;;;5079698;28;20264;-91
2024/01/29 11:23:21;;;;;;;7.60;5.57;;;15.00;1.00;;;;;;5078050;28;20590;-91
2024/01/29 11:25:51;;;;;;;6.50;5.37;;;15.20;1.00;;;;;;5063127;28;20185;-91
2024/01/29 11:28:17;;;;;;;10.97;6.20;;;15.30;1.00;;;;;;5079749;28;20203;-91
2024/01/29 11:30:52;;;;;;;13.20;5.70;;;15.50;1.00;;;;;;5079225;28;20683;-92
2024/01/29 11:33:19;;;;;;;11.00;6.30;;;15.50;1.00;;;;;;5079415;28;20592;-91
2024/01/29 11:35:45;;;;;;;6.93;5.27;;;15.60;1.00;;;;;;5079273;28;20181;-91
2024/01/29 11:38:13;;;;;;;7.63;6.03;;;15.80;1.00;;;;;;5074608;28;20403;-91
2024/01/29 11:40:43;;;;;;;7.63;6.00;;;15.80;1.00;;;;;;5059284;28;20182;-91
2024/01/29 11:43:21;;;;;;;6.77;5.70;;;15.90;1.00;;;;;;5059517;28;20186;-93
2024/01/29 11:45:51;;;;;;;8.17;6.07;;;16.10;1.00;;;;;;5060522;28;20272;-92
2024/01/29 11:48:19;;;;;;;7.10;6.10;;;16.30;1.00;;;;;;5077950;28;20178;-91
2024/01/29 11:50:52;;;;;;;6.97;6.27;;;16.40;1.00;;;;;;5061792;28;20220;-91
2024/01/29 11:53:20;;;;;;;8.60;6.80;;;16.50;1.00;;;;;;5078891;28;20245;-91
2024/01/29 11:55:48;;;;;;;9.27;6.40;;;16.60;1.00;;;;;;5078605;28;20178;-91
2024/01/29 11:58:16;;;;;;;8.13;6.30;;;16.50;1.00;;;;;;5078018;28;20213;-91
2024/01/29 12:00:43;;;;;;;9.30;6.10;;;16.60;1.00;;;;;;5078866;28;20200;-92
2024/01/29 12:03:12;;;;;;;7.03;6.13;;;16.60;1.00;;;;;;5076716;28;20185;-91
2024/01/29 12:05:38;;;;;;;6.57;5.97;;;16.60;1.00;;;;;;5058525;28;20186;-91
2024/01/29 12:08:14;;;;;;;7.80;6.33;;;16.60;1.00;;;;;;5058574;28;20648;-92
2024/01/29 12:10:41;;;;;;;6.07;5.47;;;16.60;1.00;;;;;;5057812;28;20577;-92
2024/01/29 12:13:14;;;;;;;11.27;6.43;;;16.60;1.00;;;;;;5058543;28;20252;-91
2024/01/29 12:15:40;;;;;;;7.43;5.70;;;16.50;1.00;;;;;;5058475;28;20175;-91
2024/01/29 12:18:09;;;;;;;6.97;6.13;;;16.40;1.00;;;;;;5078416;28;20553;-91
2024/01/29 12:20:36;;;;;;;8.13;6.60;;;16.30;1.00;;;;;;5077177;28;20224;-91
2024/01/29 12:23:02;;;;;;;8.73;6.23;;;16.30;1.00;;;;;;5080608;28;20196;-93
2024/01/29 12:25:28;;;;;;;8.43;7.00;;;16.40;1.00;;;;;;5082956;28;20189;-93
2024/01/29 12:28:07;;;;;;;7.40;5.87;;;16.40;1.00;;;;;;5100504;28;20228;-92
2024/01/29 12:30:33;;;;;;;11.43;5.70;;;16.40;1.00;;;;;;5081106;28;20208;-93
2024/01/29 12:33:00;;;;;;;8.40;6.10;;;16.40;1.00;;;;;;5082388;28;20177;-93
2024/01/29 12:35:28;;;;;;;9.23;6.30;;;16.30;1.00;;;;;;5060355;28;20627;-92
2024/01/29 12:38:12;;;;;;;7.90;6.13;;;16.10;1.00;;;;;;5065409;28;20286;-91
2024/01/29 12:40:40;;;;;;;7.00;6.30;;;16.10;1.00;;;;;;5059348;28;20170;-91
2024/01/29 12:43:07;;;;;;;6.47;5.43;;;16.20;1.00;;;;;;5057648;28;20178;-91
2024/01/29 12:45:34;;;;;;;8.50;6.13;;;16.30;1.00;;;;;;5057322;28;20666;-91
2024/01/29 12:48:12;;;;;;;9.17;6.43;;;16.40;1.00;;;;;;5060620;28;20269;-90
2024/01/29 12:50:42;;;;;;;8.20;6.47;;;16.30;1.00;;;;;;5075701;28;20272;-91
2024/01/29 12:53:12;;;;;;;9.10;6.37;;;16.10;1.00;;;;;;5060874;28;20181;-91
2024/01/29 12:55:42;;;;;;;11.10;6.70;;;16.00;1.00;;;;;;5094565;28;20177;-91
2024/01/29 12:58:07;;;;;;;9.23;6.13;;;16.10;1.00;;;;;;5077619;28;20177;-91
2024/01/29 13:00:35;;;;;;;9.83;6.00;;;16.30;1.00;;;;;;5086676;28;20996;-88
2024/01/29 13:03:01;;;;;;;6.53;5.87;;;16.50;1.00;;;;;;5098196;28;20181;-88